sensor_id;sensor_type;location;lat;lon;timestamp;P1;durP1;ratioP1;P2;durP2;ratioP2
11328;SDS011;5719;42.714;23.732;2022-07-17T00:01:58;5.80;;;3.47;;
11328;SDS011;5719;42.714;23.732;2022-07-17T00:04:26;4.13;;;3.72;;
11328;SDS011;5719;42.714;23.732;2022-07-17T00:06:54;3.95;;;3.15;;
11328;SDS011;5719;42.714;23.732;2022-07-17T00:09:21;11.18;;;3.58;;
11328;SDS011;5719;42.714;23.732;2022-07-17T00:11:48;5.95;;;3.78;;
11328;SDS011;5719;42.714;23.732;2022-07-17T00:14:15;4.25;;;3.67;;
11328;SDS011;5719;42.714;23.732;2022-07-17T00:16:42;3.88;;;3.58;;
11328;SDS011;5719;42.714;23.732;2022-07-17T00:19:09;4.43;;;3.65;;
11328;SDS011;5719;42.714;23.732;2022-07-17T00:21:36;4.82;;;4.05;;
11328;SDS011;5719;42.714;23.732;2022-07-17T00:24:04;6.38;;;3.30;;
11328;SDS011;5719;42.714;23.732;2022-07-17T00:26:33;3.42;;;3.10;;
11328;SDS011;5719;42.714;23.732;2022-07-17T00:29:01;5.95;;;4.55;;
11328;SDS011;5719;42.714;23.732;2022-07-17T00:31:30;5.20;;;3.92;;
11328;SDS011;5719;42.714;23.732;2022-07-17T00:33:57;6.45;;;3.85;;
11328;SDS011;5719;42.714;23.732;2022-07-17T00:36:24;4.03;;;3.50;;
11328;SDS011;5719;42.714;23.732;2022-07-17T00:38:51;3.78;;;3.20;;
11328;SDS011;5719;42.714;23.732;2022-07-17T00:41:21;3.97;;;3.58;;
11328;SDS011;5719;42.714;23.732;2022-07-17T00:43:48;4.53;;;3.92;;
11328;SDS011;5719;42.714;23.732;2022-07-17T00:46:15;4.72;;;4.00;;
11328;SDS011;5719;42.714;23.732;2022-07-17T00:48:42;6.75;;;3.65;;
11328;SDS011;5719;42.714;23.732;2022-07-17T00:51:09;9.85;;;3.80;;
11328;SDS011;5719;42.714;23.732;2022-07-17T00:53:36;3.70;;;3.40;;
11328;SDS011;5719;42.714;23.732;2022-07-17T00:56:04;4.65;;;3.70;;
11328;SDS011;5719;42.714;23.732;2022-07-17T00:58:35;4.05;;;3.67;;
11328;SDS011;5719;42.714;23.732;2022-07-17T01:01:03;3.92;;;3.63;;
11328;SDS011;5719;42.714;23.732;2022-07-17T01:03:32;9.50;;;3.58;;
11328;SDS011;5719;42.714;23.732;2022-07-17T01:05:59;5.28;;;3.30;;
11328;SDS011;5719;42.714;23.732;2022-07-17T01:08:27;4.95;;;3.70;;
11328;SDS011;5719;42.714;23.732;2022-07-17T01:10:53;5.70;;;3.50;;
11328;SDS011;5719;42.714;23.732;2022-07-17T01:13:21;6.63;;;3.75;;
11328;SDS011;5719;42.714;23.732;2022-07-17T01:15:49;5.50;;;3.45;;
11328;SDS011;5719;42.714;23.732;2022-07-17T01:18:16;6.35;;;3.47;;
11328;SDS011;5719;42.714;23.732;2022-07-17T01:20:45;5.65;;;3.50;;
11328;SDS011;5719;42.714;23.732;2022-07-17T01:23:14;5.05;;;3.30;;
11328;SDS011;5719;42.714;23.732;2022-07-17T01:25:43;3.70;;;3.40;;
11328;SDS011;5719;42.714;23.732;2022-07-17T01:28:11;5.45;;;3.40;;
11328;SDS011;5719;42.714;23.732;2022-07-17T01:30:44;3.60;;;3.30;;
11328;SDS011;5719;42.714;23.732;2022-07-17T01:33:12;3.78;;;3.47;;
11328;SDS011;5719;42.714;23.732;2022-07-17T01:35:39;6.35;;;3.60;;
11328;SDS011;5719;42.714;23.732;2022-07-17T01:38:06;4.97;;;3.50;;
11328;SDS011;5719;42.714;23.732;2022-07-17T01:40:34;4.88;;;3.10;;
11328;SDS011;5719;42.714;23.732;2022-07-17T01:43:01;3.65;;;3.35;;
11328;SDS011;5719;42.714;23.732;2022-07-17T01:45:28;4.18;;;3.80;;
11328;SDS011;5719;42.714;23.732;2022-07-17T01:47:55;7.75;;;4.00;;
11328;SDS011;5719;42.714;23.732;2022-07-17T01:50:21;7.95;;;3.65;;
11328;SDS011;5719;42.714;23.732;2022-07-17T01:52:49;4.22;;;3.58;;
11328;SDS011;5719;42.714;23.732;2022-07-17T01:55:16;9.07;;;3.97;;
11328;SDS011;5719;42.714;23.732;2022-07-17T01:57:44;6.75;;;3.88;;
11328;SDS011;5719;42.714;23.732;2022-07-17T02:00:12;3.92;;;3.63;;
11328;SDS011;5719;42.714;23.732;2022-07-17T02:02:41;5.60;;;3.88;;
11328;SDS011;5719;42.714;23.732;2022-07-17T02:05:08;3.97;;;3.67;;
11328;SDS011;5719;42.714;23.732;2022-07-17T02:07:35;5.28;;;3.65;;
11328;SDS011;5719;42.714;23.732;2022-07-17T02:10:05;5.68;;;4.47;;
11328;SDS011;5719;42.714;23.732;2022-07-17T02:12:34;7.10;;;3.50;;
11328;SDS011;5719;42.714;23.732;2022-07-17T02:15:02;6.03;;;3.90;;
11328;SDS011;5719;42.714;23.732;2022-07-17T02:17:29;6.10;;;3.88;;
11328;SDS011;5719;42.714;23.732;2022-07-17T02:19:56;4.00;;;3.70;;
11328;SDS011;5719;42.714;23.732;2022-07-17T02:22:23;3.97;;;3.67;;
11328;SDS011;5719;42.714;23.732;2022-07-17T02:24:50;6.63;;;4.00;;
11328;SDS011;5719;42.714;23.732;2022-07-17T02:27:17;4.55;;;3.90;;
11328;SDS011;5719;42.714;23.732;2022-07-17T02:29:44;4.97;;;3.72;;
11328;SDS011;5719;42.714;23.732;2022-07-17T02:32:12;4.25;;;3.88;;
11328;SDS011;5719;42.714;23.732;2022-07-17T02:34:39;4.70;;;3.63;;
11328;SDS011;5719;42.714;23.732;2022-07-17T02:37:06;4.22;;;3.53;;
11328;SDS011;5719;42.714;23.732;2022-07-17T02:39:32;5.90;;;3.90;;
11328;SDS011;5719;42.714;23.732;2022-07-17T02:41:59;5.13;;;3.67;;
11328;SDS011;5719;42.714;23.732;2022-07-17T02:44:26;4.10;;;3.25;;
11328;SDS011;5719;42.714;23.732;2022-07-17T02:46:53;4.25;;;3.60;;
11328;SDS011;5719;42.714;23.732;2022-07-17T02:49:21;4.10;;;3.70;;
11328;SDS011;5719;42.714;23.732;2022-07-17T02:51:48;5.82;;;3.50;;
11328;SDS011;5719;42.714;23.732;2022-07-17T02:54:15;3.60;;;3.28;;
11328;SDS011;5719;42.714;23.732;2022-07-17T02:56:42;5.50;;;3.83;;
11328;SDS011;5719;42.714;23.732;2022-07-17T02:59:09;4.30;;;3.90;;
11328;SDS011;5719;42.714;23.732;2022-07-17T03:01:36;5.95;;;3.72;;
11328;SDS011;5719;42.714;23.732;2022-07-17T03:04:02;5.35;;;4.13;;
11328;SDS011;5719;42.714;23.732;2022-07-17T03:06:31;6.18;;;3.90;;
11328;SDS011;5719;42.714;23.732;2022-07-17T03:08:58;4.35;;;3.90;;
11328;SDS011;5719;42.714;23.732;2022-07-17T03:11:24;6.55;;;4.72;;
11328;SDS011;5719;42.714;23.732;2022-07-17T03:13:51;8.63;;;4.15;;
11328;SDS011;5719;42.714;23.732;2022-07-17T03:16:18;6.45;;;4.30;;
11328;SDS011;5719;42.714;23.732;2022-07-17T03:18:45;7.63;;;4.32;;
11328;SDS011;5719;42.714;23.732;2022-07-17T03:21:12;6.40;;;4.25;;
11328;SDS011;5719;42.714;23.732;2022-07-17T03:23:40;3.92;;;3.50;;
11328;SDS011;5719;42.714;23.732;2022-07-17T03:26:07;6.85;;;4.50;;
11328;SDS011;5719;42.714;23.732;2022-07-17T03:28:34;6.28;;;4.68;;
11328;SDS011;5719;42.714;23.732;2022-07-17T03:31:01;5.00;;;4.30;;
11328;SDS011;5719;42.714;23.732;2022-07-17T03:33:27;6.07;;;4.60;;
11328;SDS011;5719;42.714;23.732;2022-07-17T03:35:54;8.35;;;6.63;;
11328;SDS011;5719;42.714;23.732;2022-07-17T03:38:22;8.00;;;5.25;;
11328;SDS011;5719;42.714;23.732;2022-07-17T03:40:50;6.20;;;5.57;;
11328;SDS011;5719;42.714;23.732;2022-07-17T03:43:17;5.85;;;4.53;;
11328;SDS011;5719;42.714;23.732;2022-07-17T03:45:44;18.58;;;4.85;;
11328;SDS011;5719;42.714;23.732;2022-07-17T03:48:11;10.52;;;4.10;;
11328;SDS011;5719;42.714;23.732;2022-07-17T03:50:38;5.88;;;4.40;;
11328;SDS011;5719;42.714;23.732;2022-07-17T03:53:04;9.32;;;4.63;;
11328;SDS011;5719;42.714;23.732;2022-07-17T03:55:31;4.75;;;4.22;;
11328;SDS011;5719;42.714;23.732;2022-07-17T03:58:00;5.45;;;4.72;;
11328;SDS011;5719;42.714;23.732;2022-07-17T04:00:27;5.80;;;5.20;;
11328;SDS011;5719;42.714;23.732;2022-07-17T04:02:54;9.10;;;5.57;;
11328;SDS011;5719;42.714;23.732;2022-07-17T04:05:21;7.47;;;5.28;;
11328;SDS011;5719;42.714;23.732;2022-07-17T04:07:48;6.18;;;5.25;;
11328;SDS011;5719;42.714;23.732;2022-07-17T04:10:15;5.53;;;5.00;;
11328;SDS011;5719;42.714;23.732;2022-07-17T04:12:42;6.53;;;4.80;;
11328;SDS011;5719;42.714;23.732;2022-07-17T04:15:10;7.30;;;5.30;;
11328;SDS011;5719;42.714;23.732;2022-07-17T04:17:37;6.88;;;5.45;;
11328;SDS011;5719;42.714;23.732;2022-07-17T04:20:05;6.95;;;6.13;;
11328;SDS011;5719;42.714;23.732;2022-07-17T04:22:32;6.38;;;5.00;;
11328;SDS011;5719;42.714;23.732;2022-07-17T04:24:59;5.85;;;4.40;;
11328;SDS011;5719;42.714;23.732;2022-07-17T04:27:26;6.32;;;4.70;;
11328;SDS011;5719;42.714;23.732;2022-07-17T04:29:53;7.57;;;5.07;;
11328;SDS011;5719;42.714;23.732;2022-07-17T04:32:21;4.90;;;4.45;;
11328;SDS011;5719;42.714;23.732;2022-07-17T04:34:48;10.32;;;4.72;;
11328;SDS011;5719;42.714;23.732;2022-07-17T04:37:15;6.55;;;4.63;;
11328;SDS011;5719;42.714;23.732;2022-07-17T04:39:42;5.75;;;4.70;;
11328;SDS011;5719;42.714;23.732;2022-07-17T04:42:09;10.27;;;5.28;;
11328;SDS011;5719;42.714;23.732;2022-07-17T04:44:36;6.03;;;4.80;;
11328;SDS011;5719;42.714;23.732;2022-07-17T04:47:03;7.10;;;5.25;;
11328;SDS011;5719;42.714;23.732;2022-07-17T04:49:31;8.68;;;4.90;;
11328;SDS011;5719;42.714;23.732;2022-07-17T04:51:58;4.55;;;4.15;;
11328;SDS011;5719;42.714;23.732;2022-07-17T04:54:25;5.13;;;4.63;;
11328;SDS011;5719;42.714;23.732;2022-07-17T04:56:52;5.45;;;4.95;;
11328;SDS011;5719;42.714;23.732;2022-07-17T04:59:18;5.10;;;4.63;;
11328;SDS011;5719;42.714;23.732;2022-07-17T05:01:45;8.32;;;5.25;;
11328;SDS011;5719;42.714;23.732;2022-07-17T05:04:12;6.13;;;4.70;;
11328;SDS011;5719;42.714;23.732;2022-07-17T05:06:41;9.73;;;5.10;;
11328;SDS011;5719;42.714;23.732;2022-07-17T05:09:08;9.38;;;4.60;;
11328;SDS011;5719;42.714;23.732;2022-07-17T05:11:38;4.85;;;4.35;;
11328;SDS011;5719;42.714;23.732;2022-07-17T05:14:05;5.00;;;4.47;;
11328;SDS011;5719;42.714;23.732;2022-07-17T05:16:32;8.25;;;4.40;;
11328;SDS011;5719;42.714;23.732;2022-07-17T05:18:59;5.32;;;4.28;;
11328;SDS011;5719;42.714;23.732;2022-07-17T05:21:26;5.20;;;4.35;;
11328;SDS011;5719;42.714;23.732;2022-07-17T05:23:54;7.47;;;4.63;;
11328;SDS011;5719;42.714;23.732;2022-07-17T05:26:21;5.03;;;4.50;;
11328;SDS011;5719;42.714;23.732;2022-07-17T05:28:48;8.25;;;4.50;;
11328;SDS011;5719;42.714;23.732;2022-07-17T05:31:15;4.57;;;4.18;;
11328;SDS011;5719;42.714;23.732;2022-07-17T05:33:42;6.13;;;4.28;;
11328;SDS011;5719;42.714;23.732;2022-07-17T05:36:09;6.85;;;4.70;;
11328;SDS011;5719;42.714;23.732;2022-07-17T05:38:36;5.80;;;3.88;;
11328;SDS011;5719;42.714;23.732;2022-07-17T05:41:05;7.45;;;5.00;;
11328;SDS011;5719;42.714;23.732;2022-07-17T05:43:32;6.63;;;5.00;;
11328;SDS011;5719;42.714;23.732;2022-07-17T05:45:59;6.93;;;5.00;;
11328;SDS011;5719;42.714;23.732;2022-07-17T05:48:26;6.70;;;5.13;;
11328;SDS011;5719;42.714;23.732;2022-07-17T05:50:56;7.03;;;4.85;;
11328;SDS011;5719;42.714;23.732;2022-07-17T05:53:23;10.07;;;4.38;;
11328;SDS011;5719;42.714;23.732;2022-07-17T05:55:50;5.20;;;4.07;;
11328;SDS011;5719;42.714;23.732;2022-07-17T05:58:19;7.05;;;4.00;;
11328;SDS011;5719;42.714;23.732;2022-07-17T06:00:46;7.25;;;4.05;;
11328;SDS011;5719;42.714;23.732;2022-07-17T06:03:14;4.32;;;3.85;;
11328;SDS011;5719;42.714;23.732;2022-07-17T06:05:41;5.10;;;3.65;;
11328;SDS011;5719;42.714;23.732;2022-07-17T06:08:08;5.43;;;3.60;;
11328;SDS011;5719;42.714;23.732;2022-07-17T06:10:35;7.10;;;3.72;;
11328;SDS011;5719;42.714;23.732;2022-07-17T06:13:03;5.32;;;3.80;;
11328;SDS011;5719;42.714;23.732;2022-07-17T06:15:32;6.13;;;3.97;;
11328;SDS011;5719;42.714;23.732;2022-07-17T06:18:00;8.32;;;3.90;;
11328;SDS011;5719;42.714;23.732;2022-07-17T06:20:27;3.72;;;3.35;;
11328;SDS011;5719;42.714;23.732;2022-07-17T06:22:55;8.93;;;3.47;;
11328;SDS011;5719;42.714;23.732;2022-07-17T06:25:22;5.20;;;4.35;;
11328;SDS011;5719;42.714;23.732;2022-07-17T06:27:49;4.22;;;3.58;;
11328;SDS011;5719;42.714;23.732;2022-07-17T06:30:16;5.55;;;3.50;;
11328;SDS011;5719;42.714;23.732;2022-07-17T06:32:45;5.32;;;3.63;;
11328;SDS011;5719;42.714;23.732;2022-07-17T06:35:12;5.65;;;3.33;;
11328;SDS011;5719;42.714;23.732;2022-07-17T06:37:39;8.20;;;3.50;;
11328;SDS011;5719;42.714;23.732;2022-07-17T06:40:06;7.30;;;3.20;;
11328;SDS011;5719;42.714;23.732;2022-07-17T06:42:33;6.35;;;3.10;;
11328;SDS011;5719;42.714;23.732;2022-07-17T06:45:00;3.13;;;2.92;;
11328;SDS011;5719;42.714;23.732;2022-07-17T06:47:27;7.50;;;3.42;;
11328;SDS011;5719;42.714;23.732;2022-07-17T06:49:55;5.10;;;2.78;;
11328;SDS011;5719;42.714;23.732;2022-07-17T06:52:22;3.65;;;2.53;;
11328;SDS011;5719;42.714;23.732;2022-07-17T06:54:49;3.10;;;2.80;;
11328;SDS011;5719;42.714;23.732;2022-07-17T06:57:16;2.65;;;2.30;;
11328;SDS011;5719;42.714;23.732;2022-07-17T06:59:43;8.02;;;2.78;;
11328;SDS011;5719;42.714;23.732;2022-07-17T07:02:10;7.07;;;2.47;;
11328;SDS011;5719;42.714;23.732;2022-07-17T07:04:37;2.45;;;2.25;;
11328;SDS011;5719;42.714;23.732;2022-07-17T07:07:05;7.95;;;2.22;;
11328;SDS011;5719;42.714;23.732;2022-07-17T07:09:32;6.20;;;2.25;;
11328;SDS011;5719;42.714;23.732;2022-07-17T07:11:59;4.82;;;2.28;;
11328;SDS011;5719;42.714;23.732;2022-07-17T07:14:26;8.68;;;2.28;;
11328;SDS011;5719;42.714;23.732;2022-07-17T07:16:53;2.97;;;2.13;;
11328;SDS011;5719;42.714;23.732;2022-07-17T07:19:20;3.38;;;2.30;;
11328;SDS011;5719;42.714;23.732;2022-07-17T07:21:47;2.67;;;2.45;;
11328;SDS011;5719;42.714;23.732;2022-07-17T07:24:15;5.05;;;2.15;;
11328;SDS011;5719;42.714;23.732;2022-07-17T07:26:42;4.88;;;1.67;;
11328;SDS011;5719;42.714;23.732;2022-07-17T07:29:09;6.38;;;2.00;;
11328;SDS011;5719;42.714;23.732;2022-07-17T07:31:36;2.67;;;1.85;;
11328;SDS011;5719;42.714;23.732;2022-07-17T07:34:03;2.80;;;1.75;;
11328;SDS011;5719;42.714;23.732;2022-07-17T07:36:30;4.40;;;2.00;;
11328;SDS011;5719;42.714;23.732;2022-07-17T07:38:57;1.83;;;1.58;;
11328;SDS011;5719;42.714;23.732;2022-07-17T07:41:26;3.55;;;1.63;;
11328;SDS011;5719;42.714;23.732;2022-07-17T07:43:53;2.70;;;1.52;;
11328;SDS011;5719;42.714;23.732;2022-07-17T07:46:19;5.47;;;1.92;;
11328;SDS011;5719;42.714;23.732;2022-07-17T07:48:46;3.95;;;1.90;;
11328;SDS011;5719;42.714;23.732;2022-07-17T07:51:13;4.20;;;1.70;;
11328;SDS011;5719;42.714;23.732;2022-07-17T07:53:43;5.75;;;1.90;;
11328;SDS011;5719;42.714;23.732;2022-07-17T07:56:09;2.15;;;1.63;;
11328;SDS011;5719;42.714;23.732;2022-07-17T07:58:38;3.10;;;1.75;;
11328;SDS011;5719;42.714;23.732;2022-07-17T08:01:05;5.30;;;2.10;;
11328;SDS011;5719;42.714;23.732;2022-07-17T08:03:32;2.08;;;1.88;;
11328;SDS011;5719;42.714;23.732;2022-07-17T08:05:59;1.92;;;1.70;;
11328;SDS011;5719;42.714;23.732;2022-07-17T08:08:26;4.45;;;1.80;;
11328;SDS011;5719;42.714;23.732;2022-07-17T08:10:53;3.20;;;2.03;;
11328;SDS011;5719;42.714;23.732;2022-07-17T08:13:20;8.88;;;2.00;;
11328;SDS011;5719;42.714;23.732;2022-07-17T08:15:48;2.40;;;1.80;;
11328;SDS011;5719;42.714;23.732;2022-07-17T08:18:16;2.05;;;1.75;;
11328;SDS011;5719;42.714;23.732;2022-07-17T08:20:43;2.22;;;1.75;;
11328;SDS011;5719;42.714;23.732;2022-07-17T08:23:10;3.58;;;1.95;;
11328;SDS011;5719;42.714;23.732;2022-07-17T08:25:37;2.85;;;1.67;;
11328;SDS011;5719;42.714;23.732;2022-07-17T08:28:04;2.78;;;1.92;;
11328;SDS011;5719;42.714;23.732;2022-07-17T08:30:32;6.05;;;2.10;;
11328;SDS011;5719;42.714;23.732;2022-07-17T08:33:01;5.28;;;1.80;;
11328;SDS011;5719;42.714;23.732;2022-07-17T08:35:29;6.05;;;2.00;;
11328;SDS011;5719;42.714;23.732;2022-07-17T08:37:56;1.90;;;1.80;;
11328;SDS011;5719;42.714;23.732;2022-07-17T08:40:26;6.20;;;2.22;;
11328;SDS011;5719;42.714;23.732;2022-07-17T08:42:55;1.85;;;1.70;;
11328;SDS011;5719;42.714;23.732;2022-07-17T08:45:23;3.20;;;1.90;;
11328;SDS011;5719;42.714;23.732;2022-07-17T08:47:51;3.85;;;1.70;;
11328;SDS011;5719;42.714;23.732;2022-07-17T08:50:21;3.10;;;1.90;;
11328;SDS011;5719;42.714;23.732;2022-07-17T08:52:50;3.13;;;1.70;;
11328;SDS011;5719;42.714;23.732;2022-07-17T08:55:17;2.33;;;1.75;;
11328;SDS011;5719;42.714;23.732;2022-07-17T08:57:45;1.83;;;1.52;;
11328;SDS011;5719;42.714;23.732;2022-07-17T09:00:13;3.30;;;1.77;;
11328;SDS011;5719;42.714;23.732;2022-07-17T09:02:52;3.38;;;1.60;;
11328;SDS011;5719;42.714;23.732;2022-07-17T09:05:22;4.32;;;2.00;;
11328;SDS011;5719;42.714;23.732;2022-07-17T09:07:50;3.65;;;1.75;;
11328;SDS011;5719;42.714;23.732;2022-07-17T09:10:17;2.72;;;1.80;;
11328;SDS011;5719;42.714;23.732;2022-07-17T09:12:44;3.60;;;1.90;;
11328;SDS011;5719;42.714;23.732;2022-07-17T09:15:15;3.88;;;1.83;;
11328;SDS011;5719;42.714;23.732;2022-07-17T09:17:47;4.40;;;1.80;;
11328;SDS011;5719;42.714;23.732;2022-07-17T09:20:15;2.75;;;1.80;;
11328;SDS011;5719;42.714;23.732;2022-07-17T09:22:43;3.25;;;2.00;;
11328;SDS011;5719;42.714;23.732;2022-07-17T09:25:11;2.85;;;1.75;;
11328;SDS011;5719;42.714;23.732;2022-07-17T09:27:39;3.70;;;1.80;;
11328;SDS011;5719;42.714;23.732;2022-07-17T09:30:07;5.43;;;1.92;;
11328;SDS011;5719;42.714;23.732;2022-07-17T09:32:37;1.90;;;1.80;;
11328;SDS011;5719;42.714;23.732;2022-07-17T09:35:07;32.97;;;2.35;;
11328;SDS011;5719;42.714;23.732;2022-07-17T09:37:35;4.85;;;1.80;;
11328;SDS011;5719;42.714;23.732;2022-07-17T09:40:09;4.63;;;2.30;;
11328;SDS011;5719;42.714;23.732;2022-07-17T09:42:59;6.10;;;1.80;;
11328;SDS011;5719;42.714;23.732;2022-07-17T09:45:26;6.53;;;1.88;;
11328;SDS011;5719;42.714;23.732;2022-07-17T09:47:53;3.65;;;2.00;;
11328;SDS011;5719;42.714;23.732;2022-07-17T09:50:20;4.53;;;1.65;;
11328;SDS011;5719;42.714;23.732;2022-07-17T09:52:48;2.90;;;1.90;;
11328;SDS011;5719;42.714;23.732;2022-07-17T09:55:21;15.80;;;2.00;;
11328;SDS011;5719;42.714;23.732;2022-07-17T10:00:21;2.95;;;1.83;;
11328;SDS011;5719;42.714;23.732;2022-07-17T10:02:48;4.32;;;2.20;;
11328;SDS011;5719;42.714;23.732;2022-07-17T10:05:16;2.67;;;1.88;;
11328;SDS011;5719;42.714;23.732;2022-07-17T10:07:43;2.50;;;1.85;;
11328;SDS011;5719;42.714;23.732;2022-07-17T10:10:12;6.93;;;1.98;;
11328;SDS011;5719;42.714;23.732;2022-07-17T10:12:42;1.90;;;1.80;;
11328;SDS011;5719;42.714;23.732;2022-07-17T10:15:11;4.57;;;2.00;;
11328;SDS011;5719;42.714;23.732;2022-07-17T10:17:38;3.17;;;2.00;;
11328;SDS011;5719;42.714;23.732;2022-07-17T10:20:06;6.55;;;1.80;;
11328;SDS011;5719;42.714;23.732;2022-07-17T10:22:42;4.20;;;1.65;;
11328;SDS011;5719;42.714;23.732;2022-07-17T10:25:12;2.78;;;1.70;;
11328;SDS011;5719;42.714;23.732;2022-07-17T10:27:48;3.78;;;1.55;;
11328;SDS011;5719;42.714;23.732;2022-07-17T10:30:19;5.85;;;1.67;;
11328;SDS011;5719;42.714;23.732;2022-07-17T10:32:53;5.43;;;1.60;;
11328;SDS011;5719;42.714;23.732;2022-07-17T10:35:24;2.88;;;1.98;;
11328;SDS011;5719;42.714;23.732;2022-07-17T10:37:51;3.97;;;1.92;;
11328;SDS011;5719;42.714;23.732;2022-07-17T10:40:19;2.15;;;1.77;;
11328;SDS011;5719;42.714;23.732;2022-07-17T10:42:56;5.05;;;1.80;;
11328;SDS011;5719;42.714;23.732;2022-07-17T10:45:26;2.05;;;1.85;;
11328;SDS011;5719;42.714;23.732;2022-07-17T10:47:59;2.55;;;1.80;;
11328;SDS011;5719;42.714;23.732;2022-07-17T10:50:29;4.00;;;1.90;;
11328;SDS011;5719;42.714;23.732;2022-07-17T10:53:04;4.70;;;1.73;;
11328;SDS011;5719;42.714;23.732;2022-07-17T10:55:37;4.93;;;1.67;;
11328;SDS011;5719;42.714;23.732;2022-07-17T11:01:00;2.60;;;1.70;;
11328;SDS011;5719;42.714;23.732;2022-07-17T11:03:31;3.53;;;1.45;;
11328;SDS011;5719;42.714;23.732;2022-07-17T11:06:10;2.40;;;1.90;;
11328;SDS011;5719;42.714;23.732;2022-07-17T11:08:42;1.98;;;1.63;;
11328;SDS011;5719;42.714;23.732;2022-07-17T11:11:20;2.22;;;1.55;;
11328;SDS011;5719;42.714;23.732;2022-07-17T11:13:51;3.13;;;1.75;;
11328;SDS011;5719;42.714;23.732;2022-07-17T11:16:27;3.17;;;1.75;;
11328;SDS011;5719;42.714;23.732;2022-07-17T11:18:55;5.75;;;1.73;;
11328;SDS011;5719;42.714;23.732;2022-07-17T11:21:24;4.55;;;1.90;;
11328;SDS011;5719;42.714;23.732;2022-07-17T11:23:52;2.42;;;1.70;;
11328;SDS011;5719;42.714;23.732;2022-07-17T11:26:20;1.88;;;1.75;;
11328;SDS011;5719;42.714;23.732;2022-07-17T11:28:48;2.40;;;1.67;;
11328;SDS011;5719;42.714;23.732;2022-07-17T11:31:19;3.60;;;1.77;;
11328;SDS011;5719;42.714;23.732;2022-07-17T11:33:49;3.53;;;1.80;;
11328;SDS011;5719;42.714;23.732;2022-07-17T11:36:20;2.58;;;1.58;;
11328;SDS011;5719;42.714;23.732;2022-07-17T11:38:52;2.15;;;1.80;;
11328;SDS011;5719;42.714;23.732;2022-07-17T11:41:20;1.65;;;1.40;;
11328;SDS011;5719;42.714;23.732;2022-07-17T11:43:48;3.17;;;1.73;;
11328;SDS011;5719;42.714;23.732;2022-07-17T11:46:15;2.25;;;1.85;;
11328;SDS011;5719;42.714;23.732;2022-07-17T11:48:44;1.50;;;1.30;;
11328;SDS011;5719;42.714;23.732;2022-07-17T11:51:11;3.50;;;1.77;;
11328;SDS011;5719;42.714;23.732;2022-07-17T11:53:39;5.15;;;1.70;;
11328;SDS011;5719;42.714;23.732;2022-07-17T11:56:06;2.08;;;1.98;;
11328;SDS011;5719;42.714;23.732;2022-07-17T11:58:40;3.78;;;1.77;;
11328;SDS011;5719;42.714;23.732;2022-07-17T12:01:09;2.05;;;1.70;;
11328;SDS011;5719;42.714;23.732;2022-07-17T12:03:36;5.35;;;1.70;;
11328;SDS011;5719;42.714;23.732;2022-07-17T12:06:06;1.88;;;1.45;;
11328;SDS011;5719;42.714;23.732;2022-07-17T12:08:34;3.58;;;1.63;;
11328;SDS011;5719;42.714;23.732;2022-07-17T12:11:03;2.10;;;1.58;;
11328;SDS011;5719;42.714;23.732;2022-07-17T12:13:37;5.63;;;1.73;;
11328;SDS011;5719;42.714;23.732;2022-07-17T12:16:17;4.13;;;1.77;;
11328;SDS011;5719;42.714;23.732;2022-07-17T12:21:26;3.33;;;1.98;;
11328;SDS011;5719;42.714;23.732;2022-07-17T12:23:56;6.65;;;1.83;;
11328;SDS011;5719;42.714;23.732;2022-07-17T12:26:24;4.07;;;1.88;;
11328;SDS011;5719;42.714;23.732;2022-07-17T12:28:51;2.97;;;2.00;;
11328;SDS011;5719;42.714;23.732;2022-07-17T12:31:19;3.53;;;1.60;;
11328;SDS011;5719;42.714;23.732;2022-07-17T12:33:46;2.15;;;1.80;;
11328;SDS011;5719;42.714;23.732;2022-07-17T12:36:14;2.97;;;1.60;;
11328;SDS011;5719;42.714;23.732;2022-07-17T12:38:42;2.75;;;1.70;;
11328;SDS011;5719;42.714;23.732;2022-07-17T12:41:09;3.58;;;1.45;;
11328;SDS011;5719;42.714;23.732;2022-07-17T12:43:38;5.82;;;1.85;;
11328;SDS011;5719;42.714;23.732;2022-07-17T12:46:05;2.80;;;1.88;;
11328;SDS011;5719;42.714;23.732;2022-07-17T12:48:32;3.15;;;1.70;;
11328;SDS011;5719;42.714;23.732;2022-07-17T12:51:00;6.47;;;2.00;;
11328;SDS011;5719;42.714;23.732;2022-07-17T12:53:27;1.67;;;1.58;;
11328;SDS011;5719;42.714;23.732;2022-07-17T12:55:55;1.83;;;1.70;;
11328;SDS011;5719;42.714;23.732;2022-07-17T12:58:22;4.90;;;1.98;;
11328;SDS011;5719;42.714;23.732;2022-07-17T13:00:49;2.45;;;2.10;;
11328;SDS011;5719;42.714;23.732;2022-07-17T13:03:16;3.53;;;1.60;;
11328;SDS011;5719;42.714;23.732;2022-07-17T13:05:43;3.75;;;1.67;;
11328;SDS011;5719;42.714;23.732;2022-07-17T13:08:10;3.28;;;1.48;;
11328;SDS011;5719;42.714;23.732;2022-07-17T13:10:37;6.90;;;1.90;;
11328;SDS011;5719;42.714;23.732;2022-07-17T13:13:05;2.88;;;1.67;;
11328;SDS011;5719;42.714;23.732;2022-07-17T13:15:32;3.40;;;1.90;;
11328;SDS011;5719;42.714;23.732;2022-07-17T13:17:59;4.15;;;1.70;;
11328;SDS011;5719;42.714;23.732;2022-07-17T13:20:27;1.70;;;1.60;;
11328;SDS011;5719;42.714;23.732;2022-07-17T13:22:54;4.10;;;1.60;;
11328;SDS011;5719;42.714;23.732;2022-07-17T13:25:21;2.88;;;1.60;;
11328;SDS011;5719;42.714;23.732;2022-07-17T13:27:48;4.43;;;1.92;;
11328;SDS011;5719;42.714;23.732;2022-07-17T13:30:17;2.08;;;1.60;;
11328;SDS011;5719;42.714;23.732;2022-07-17T13:32:44;1.52;;;1.42;;
11328;SDS011;5719;42.714;23.732;2022-07-17T13:35:11;3.15;;;1.60;;
11328;SDS011;5719;42.714;23.732;2022-07-17T13:37:38;1.98;;;1.73;;
11328;SDS011;5719;42.714;23.732;2022-07-17T13:40:06;2.83;;;1.80;;
11328;SDS011;5719;42.714;23.732;2022-07-17T13:42:33;2.20;;;1.70;;
11328;SDS011;5719;42.714;23.732;2022-07-17T13:45:00;2.22;;;1.80;;
11328;SDS011;5719;42.714;23.732;2022-07-17T13:47:29;2.75;;;1.65;;
11328;SDS011;5719;42.714;23.732;2022-07-17T13:49:56;1.70;;;1.60;;
11328;SDS011;5719;42.714;23.732;2022-07-17T13:52:23;2.35;;;1.77;;
11328;SDS011;5719;42.714;23.732;2022-07-17T13:54:51;3.45;;;1.90;;
11328;SDS011;5719;42.714;23.732;2022-07-17T13:57:18;8.63;;;1.80;;
11328;SDS011;5719;42.714;23.732;2022-07-17T13:59:45;4.32;;;1.60;;
11328;SDS011;5719;42.714;23.732;2022-07-17T14:02:13;3.72;;;1.80;;
11328;SDS011;5719;42.714;23.732;2022-07-17T14:04:41;4.07;;;2.10;;
11328;SDS011;5719;42.714;23.732;2022-07-17T14:07:08;1.75;;;1.65;;
11328;SDS011;5719;42.714;23.732;2022-07-17T14:09:35;3.38;;;1.60;;
11328;SDS011;5719;42.714;23.732;2022-07-17T14:12:02;5.70;;;1.80;;
11328;SDS011;5719;42.714;23.732;2022-07-17T14:14:29;2.08;;;1.60;;
11328;SDS011;5719;42.714;23.732;2022-07-17T14:16:57;5.13;;;1.83;;
11328;SDS011;5719;42.714;23.732;2022-07-17T14:19:24;3.05;;;1.85;;
11328;SDS011;5719;42.714;23.732;2022-07-17T14:21:52;3.40;;;1.50;;
11328;SDS011;5719;42.714;23.732;2022-07-17T14:24:19;2.08;;;1.88;;
11328;SDS011;5719;42.714;23.732;2022-07-17T14:26:46;4.78;;;1.67;;
11328;SDS011;5719;42.714;23.732;2022-07-17T14:29:13;5.00;;;1.50;;
11328;SDS011;5719;42.714;23.732;2022-07-17T14:31:40;2.53;;;1.95;;
11328;SDS011;5719;42.714;23.732;2022-07-17T14:34:07;2.20;;;1.90;;
11328;SDS011;5719;42.714;23.732;2022-07-17T14:36:34;6.10;;;2.40;;
11328;SDS011;5719;42.714;23.732;2022-07-17T14:39:03;6.38;;;2.20;;
11328;SDS011;5719;42.714;23.732;2022-07-17T14:41:29;2.72;;;1.67;;
11328;SDS011;5719;42.714;23.732;2022-07-17T14:43:57;3.95;;;1.80;;
11328;SDS011;5719;42.714;23.732;2022-07-17T14:46:24;6.00;;;1.75;;
11328;SDS011;5719;42.714;23.732;2022-07-17T14:48:51;2.47;;;1.80;;
11328;SDS011;5719;42.714;23.732;2022-07-17T14:51:18;3.15;;;2.28;;
11328;SDS011;5719;42.714;23.732;2022-07-17T14:53:45;8.05;;;1.90;;
11328;SDS011;5719;42.714;23.732;2022-07-17T14:56:13;3.75;;;2.00;;
11328;SDS011;5719;42.714;23.732;2022-07-17T14:58:41;8.25;;;1.90;;
11328;SDS011;5719;42.714;23.732;2022-07-17T15:01:08;6.60;;;2.08;;